Terminal Aerodrome Forecast
Issued by NWS

Home | Current Version | Previous Version | Text Only | Print | Product List | Glossary On
Versions: 1 2 3 4 5 6 7 8 9 10 11 12 13 14 15 16 17 18 19 20 21 22 23 24 25 26 27 28
000
FTAK31 PANC 250530
TAFASD
TAF
PASD 250530Z 2506/2606 02008KT P6SM VCSH FEW015 SCT035 BKN045
     FM251000 VRB06KT 6SM -RA BR SCT015 BKN025
     FM252200 27005KT P6SM VCSH SCT025 BKN040
     FM260100 33010KT P6SM BKN070
      AMD LTD TO CLD VIS AND WIND=

USA.gov is the U.S. government's official web portal to all federal, state and local government web resources and services.